Time;durP1;ratioP1;P1;durP2;ratioP2;P2;SDS_P1;SDS_P2;PMS_P1;PMS_P2;Temp;Humidity;BMP_temperature;BMP_pressure;BME280_temperature;BME280_humidity;BME280_pressure;Samples;Min_cycle;Max_cycle;Signal;HPM_P1;HPM_P2
2022/01/12 00:00:52;;;;;;;17.08;16.08;;;;;;;-4.30;89.75;102203.34;4986153;28;20061;-62
2022/01/12 00:03:18;;;;;;;15.90;15.02;;;;;;;-4.33;89.01;102203.41;4985577;28;20045;-62
2022/01/12 00:05:43;;;;;;;14.82;14.10;;;;;;;-4.25;88.39;102191.97;4981854;28;20460;-62
2022/01/12 00:08:09;;;;;;;16.25;15.35;;;;;;;-4.34;87.86;102201.69;4986437;28;20069;-64
2022/01/12 00:10:35;;;;;;;16.63;15.68;;;;;;;-4.32;86.98;102203.38;4985071;28;20385;-62
2022/01/12 00:13:00;;;;;;;16.00;15.10;;;;;;;-4.31;86.05;102199.06;4989267;28;20031;-62
2022/01/12 00:15:26;;;;;;;15.65;14.85;;;;;;;-4.29;83.40;102202.44;4984255;28;20428;-62
2022/01/12 00:17:51;;;;;;;16.65;15.75;;;;;;;-4.22;82.82;102198.81;4976305;28;20049;-62
2022/01/12 00:20:16;;;;;;;16.13;15.23;;;;;;;-4.25;80.09;102196.31;4989613;28;20018;-63
2022/01/12 00:22:43;;;;;;;15.93;15.13;;;;;;;-4.35;78.41;102198.25;4992210;28;20484;-63
2022/01/12 00:25:31;;;;;;;16.35;15.43;;;;;;;-4.30;79.12;102206.78;4982392;28;20035;-62
2022/01/12 00:33:26;;;;;;;16.00;15.10;;;;;;;-4.33;77.48;102199.09;4986583;28;20077;-66
2022/01/12 00:35:54;;;;;;;15.70;14.85;;;;;;;-4.21;77.59;102208.28;4990332;28;20400;-63
2022/01/12 00:38:22;;;;;;;15.80;14.90;;;;;;;-4.24;76.36;102203.19;4986527;28;20027;-62
2022/01/12 00:40:50;;;;;;;15.75;14.95;;;;;;;-4.21;75.98;102198.78;4990505;28;20113;-62
2022/01/12 00:43:17;;;;;;;15.85;15.00;;;;;;;-4.28;75.51;102193.78;4989470;28;20069;-64
2022/01/12 00:45:44;;;;;;;15.23;14.43;;;;;;;-4.34;74.77;102199.97;4989796;28;20139;-62
2022/01/12 00:48:10;;;;;;;16.00;15.18;;;;;;;-4.37;74.18;102194.03;4986700;28;20105;-62
2022/01/12 00:50:36;;;;;;;15.75;14.95;;;;;;;-4.43;72.63;102205.38;4982533;28;20568;-62
2022/01/12 00:53:03;;;;;;;15.73;14.90;;;;;;;-4.45;72.31;102201.97;4979668;28;20046;-62
2022/01/12 00:55:30;;;;;;;16.95;15.93;;;;;;;-4.52;71.23;102213.38;4977571;28;20060;-63
2022/01/12 00:57:57;;;;;;;15.98;15.18;;;;;;;-4.53;70.79;102198.72;4988797;28;20043;-61
2022/01/12 01:00:24;;;;;;;16.23;15.32;;;;;;;-4.52;71.38;102205.59;4990974;28;20137;-63
2022/01/12 01:02:49;;;;;;;15.45;14.65;;;;;;;-4.63;70.11;102203.25;4988970;28;20731;-63
2022/01/12 01:05:19;;;;;;;16.02;15.20;;;;;;;-4.57;70.00;102203.13;4982996;28;20480;-64
2022/01/12 01:07:45;;;;;;;15.45;14.65;;;;;;;-4.62;70.42;102205.00;4985443;28;20034;-62
2022/01/12 01:10:14;;;;;;;15.10;14.38;;;;;;;-4.60;70.64;102192.00;4992885;28;20031;-61
2022/01/12 01:12:40;;;;;;;15.77;14.98;;;;;;;-4.56;70.94;102198.78;4993280;28;20492;-63
2022/01/12 01:15:09;;;;;;;15.05;14.32;;;;;;;-4.56;70.70;102199.63;4993182;28;20034;-63
2022/01/12 01:25:45;;;;;;;15.02;14.27;;;;;;;-4.61;72.20;102204.09;4978738;28;20048;-62
2022/01/12 01:28:12;;;;;;;15.38;14.57;;;;;;;-4.66;72.46;102205.09;4994499;28;20026;-62
2022/01/12 01:30:40;;;;;;;15.85;14.95;;;;;;;-4.72;72.98;102212.09;4993052;28;20213;-64
2022/01/12 01:33:08;;;;;;;15.57;14.77;;;;;;;-4.80;73.84;102206.25;4986641;28;20117;-63
2022/01/12 01:35:38;;;;;;;16.83;15.82;;;;;;;-4.89;74.24;102203.03;4982427;28;20031;-63
2022/01/12 01:38:05;;;;;;;15.68;14.88;;;;;;;-4.83;74.79;102208.06;4985667;28;20037;-63
2022/01/12 01:40:34;;;;;;;15.45;14.70;;;;;;;-4.83;75.34;102208.06;4992468;28;20130;-63
2022/01/12 01:53:41;;;;;;;;;;;;;;;-4.90;77.93;102207.34;4986032;28;20045;-62
2022/01/12 01:56:07;;;;;;;16.20;15.40;;;;;;;-4.94;77.75;102208.31;4992117;28;19918;-63
2022/01/12 01:58:33;;;;;;;16.98;16.08;;;;;;;-4.98;78.68;102214.44;4986343;28;20053;-63
2022/01/12 02:00:59;;;;;;;17.27;16.38;;;;;;;-5.01;79.49;102207.59;4984706;28;20105;-62
2022/01/12 02:03:27;;;;;;;16.85;15.95;;;;;;;-5.12;80.00;102219.91;4986001;28;20097;-63
2022/01/12 02:05:52;;;;;;;17.85;16.85;;;;;;;-5.23;80.65;102221.88;4985627;28;20481;-62
2022/01/12 02:08:18;;;;;;;16.83;15.93;;;;;;;-5.32;81.36;102219.47;4985862;28;20041;-61
2022/01/12 02:10:44;;;;;;;18.00;17.02;;;;;;;-5.45;82.27;102226.63;4991050;28;20136;-62
2022/01/12 02:13:10;;;;;;;17.58;16.67;;;;;;;-5.55;82.58;102222.53;4991948;28;20540;-63
2022/01/12 02:15:37;;;;;;;19.70;18.67;;;;;;;-5.59;83.65;102224.31;4984284;28;20539;-62
2022/01/12 02:39:49;;;;;;;25.88;24.48;;;;;;;-6.06;85.90;102253.66;4988700;28;20053;-63
2022/01/12 02:40:10;;;;;;;27.30;25.73;;;;;;;-6.06;85.75;102250.22;4981700;28;20113;-63
2022/01/12 02:42:40;;;;;;;26.80;25.38;;;;;;;-6.12;86.00;102248.59;4992245;28;20026;-62
2022/01/12 02:50:47;;;;;;;23.60;22.40;;;;;;;-6.20;86.89;102255.63;4992994;28;20064;-61
2022/01/12 02:55:59;;;;;;;24.38;23.17;;;;;;;-6.34;87.43;102262.75;4987743;28;20132;-62
2022/01/12 02:58:24;;;;;;;26.70;25.30;;;;;;;-6.40;87.70;102261.94;4990765;28;20538;-63
2022/01/12 03:03:25;;;;;;;26.35;24.98;;;;;;;-6.50;87.63;102265.56;4982488;28;20030;-62
2022/01/12 03:05:59;;;;;;;24.98;23.67;;;;;;;-6.46;88.44;102262.06;4985422;28;20038;-62
2022/01/12 03:08:26;;;;;;;27.17;25.58;;;;;;;-6.47;89.99;102265.50;4988880;28;20046;-64
2022/01/12 03:10:53;;;;;;;25.63;24.23;;;;;;;-6.49;90.25;102266.41;4990825;28;20030;-62
2022/01/12 03:13:19;;;;;;;27.05;25.50;;;;;;;-6.61;89.40;102262.31;4986704;28;20132;-62
2022/01/12 03:15:47;;;;;;;26.55;25.13;;;;;;;-6.56;91.08;102275.13;4991471;28;20756;-64
2022/01/12 03:18:13;;;;;;;24.27;22.92;;;;;;;-6.65;89.93;102283.84;4979452;28;20027;-60
2022/01/12 03:20:38;;;;;;;24.95;23.67;;;;;;;-6.74;89.85;102287.44;4991083;28;20034;-63
2022/01/12 03:23:04;;;;;;;25.75;24.40;;;;;;;-6.84;88.45;102277.22;4989751;28;20062;-63
2022/01/12 03:25:29;;;;;;;26.00;24.52;;;;;;;-6.87;87.35;102285.03;4984757;28;20030;-61
2022/01/12 03:27:59;;;;;;;27.95;26.45;;;;;;;-6.99;86.28;102286.03;4980435;28;20034;-64
2022/01/12 03:30:25;;;;;;;26.95;25.40;;;;;;;-7.07;86.23;102287.84;4992480;28;20054;-64
2022/01/12 03:33:05;;;;;;;26.33;25.00;;;;;;;-7.07;86.35;102286.13;4986895;28;20153;-62
2022/01/12 03:36:01;;;;;;;28.15;26.63;;;;;;;-7.09;86.22;102282.72;4987023;28;20088;-63
2022/01/12 03:38:27;;;;;;;30.60;28.90;;;;;;;-7.26;86.33;102287.25;4988032;28;20034;-64
2022/01/12 03:40:52;;;;;;;31.40;29.70;;;;;;;-7.24;85.20;102293.22;4988739;28;20121;-62
2022/01/12 03:43:18;;;;;;;31.25;29.65;;;;;;;-7.27;85.64;102278.66;4985169;28;20022;-61
2022/01/12 03:45:47;;;;;;;32.30;30.50;;;;;;;-7.40;85.48;102296.84;4989365;28;20038;-61
2022/01/12 03:48:13;;;;;;;30.77;29.08;;;;;;;-7.41;85.54;102295.16;4980767;28;20034;-62
2022/01/12 03:50:38;;;;;;;30.02;28.45;;;;;;;-7.48;85.79;102301.25;4978762;28;20041;-63
2022/01/12 03:53:04;;;;;;;27.58;26.17;;;;;;;-7.50;86.03;102314.13;4980306;28;20030;-62
2022/01/12 03:55:29;;;;;;;28.75;27.17;;;;;;;-7.59;86.74;102307.34;4986416;28;20039;-63
2022/01/12 03:57:55;;;;;;;29.52;27.95;;;;;;;-7.59;86.16;102309.06;4987887;28;20416;-64
2022/01/12 04:00:22;;;;;;;27.08;25.67;;;;;;;-7.69;85.37;102300.59;4990270;28;20046;-62
2022/01/12 04:02:47;;;;;;;28.10;26.50;;;;;;;-7.71;85.62;102304.91;4990161;28;20030;-62
2022/01/12 04:08:18;;;;;;;27.60;26.10;;;;;;;-7.71;86.78;102299.75;4988613;28;20034;-63
2022/01/12 04:08:19;;;;;;;28.50;26.98;;;;;;;-7.79;86.60;102306.69;4986900;28;20050;-62
2022/01/12 04:11:05;;;;;;;30.10;28.42;;;;;;;-7.77;87.64;102304.13;4987746;28;20026;-62
2022/01/12 04:13:31;;;;;;;30.10;28.52;;;;;;;-7.81;87.26;102311.00;4989197;28;20424;-63
2022/01/12 04:16:01;;;;;;;29.92;28.33;;;;;;;-7.90;88.18;102322.25;4988036;28;20030;-63
2022/01/12 04:18:26;;;;;;;30.90;29.33;;;;;;;-7.94;88.43;102312.81;4979931;28;20507;-64
2022/01/12 04:20:52;;;;;;;32.60;30.73;;;;;;;-7.92;88.61;102318.00;4991172;28;20058;-61
2022/01/12 04:23:20;;;;;;;28.80;27.40;;;;;;;-7.97;88.89;102318.00;4979865;28;20027;-64
2022/01/12 04:25:53;;;;;;;31.67;30.00;;;;;;;-8.02;89.01;102319.75;4985742;28;20022;-63
2022/01/12 04:28:21;;;;;;;30.17;28.60;;;;;;;-8.02;89.12;102324.06;4988489;28;20040;-65
2022/01/12 04:30:48;;;;;;;32.85;31.08;;;;;;;-8.10;90.09;102319.81;4982228;28;20031;-61
2022/01/12 04:33:14;;;;;;;30.00;28.50;;;;;;;-8.05;89.41;102329.25;4990114;28;20061;-61
2022/01/12 04:35:47;;;;;;;31.10;29.50;;;;;;;-8.21;89.87;102324.22;4992047;28;20030;-61
2022/01/12 04:38:13;;;;;;;33.33;31.67;;;;;;;-8.17;90.08;102331.03;4992429;28;20030;-62
2022/01/12 04:40:39;;;;;;;33.40;31.70;;;;;;;-8.23;89.29;102333.66;4994458;28;20377;-63
2022/01/12 04:43:07;;;;;;;34.42;32.40;;;;;;;-8.25;89.54;102334.53;4993730;28;20038;-62
2022/01/12 04:45:39;;;;;;;32.00;30.40;;;;;;;-8.25;89.33;102332.81;4992438;28;20590;-61
2022/01/12 04:48:52;;;;;;;33.08;31.27;;;;;;;-8.26;90.79;102338.84;4986571;28;20457;-63
2022/01/12 04:50:56;;;;;;;32.17;30.48;;;;;;;-8.33;89.71;102341.47;4981592;28;20511;-61
2022/01/12 04:53:22;;;;;;;33.88;32.17;;;;;;;-8.36;89.47;102339.81;4986004;28;20121;-63
2022/01/12 04:55:50;;;;;;;33.85;32.15;;;;;;;-8.39;89.07;102344.94;4987839;28;20129;-64
2022/01/12 04:58:16;;;;;;;33.38;31.58;;;;;;;-8.45;89.36;102352.69;4992370;28;20447;-62
2022/01/12 05:00:43;;;;;;;37.00;34.97;;;;;;;-8.44;89.43;102355.28;4992382;28;20113;-64
2022/01/12 05:13:57;;;;;;;37.10;35.13;;;;;;;-8.61;89.80;102361.38;4984694;28;20134;-61
2022/01/12 05:16:23;;;;;;;37.25;35.25;;;;;;;-8.69;89.98;102359.69;4986315;28;20050;-61
2022/01/12 05:18:50;;;;;;;38.17;36.10;;;;;;;-8.70;89.81;102363.13;4981661;28;20486;-63
2022/01/12 05:21:17;;;;;;;41.08;38.72;;;;;;;-8.71;90.00;102364.00;4977376;28;20022;-60
2022/01/12 05:23:43;;;;;;;39.40;37.30;;;;;;;-8.76;89.86;102370.88;4991923;28;20014;-65
2022/01/12 05:26:09;;;;;;;38.20;36.15;;;;;;;-8.79;90.00;102367.47;4986281;28;20049;-63
2022/01/12 05:28:34;;;;;;;37.47;35.38;;;;;;;-8.80;90.51;102370.91;4979783;28;20396;-62
2022/01/12 05:31:01;;;;;;;37.13;35.13;;;;;;;-8.84;89.64;102379.50;4988691;28;20026;-63
2022/01/12 05:33:27;;;;;;;41.28;38.70;;;;;;;-8.86;89.73;102382.06;4987467;28;20033;-63
2022/01/12 05:35:55;;;;;;;37.38;35.35;;;;;;;-8.85;90.04;102390.66;4979617;28;20109;-63
2022/01/12 05:38:21;;;;;;;39.13;37.00;;;;;;;-8.86;89.55;102396.66;4990322;28;20124;-63
2022/01/12 05:40:52;;;;;;;39.80;37.53;;;;;;;-8.88;88.97;102394.09;4992566;28;20029;-62
2022/01/12 05:43:24;;;;;;;40.15;37.92;;;;;;;-8.85;89.68;102403.50;4991888;28;20023;-62
2022/01/12 05:45:51;;;;;;;38.92;36.80;;;;;;;-8.88;88.97;102404.38;4992621;28;20072;-63
2022/01/12 05:50:42;;;;;;;39.25;37.03;;;;;;;-8.84;88.10;102412.94;4982050;28;20444;-68
2022/01/12 05:53:09;;;;;;;39.17;37.05;;;;;;;-8.42;92.06;102427.34;4981457;28;20027;-64
2022/01/12 05:55:34;;;;;;;37.13;35.05;;;;;;;-8.54;88.52;102415.38;4987927;28;20034;-66
2022/01/12 05:58:00;;;;;;;35.40;33.53;;;;;;;-8.38;87.73;102422.16;4977624;28;20046;-68
2022/01/12 06:00:28;;;;;;;35.65;33.50;;;;;;;-8.14;87.08;102428.03;4981938;28;20038;-65
2022/01/12 06:02:54;;;;;;;36.17;33.95;;;;;;;-8.23;86.78;102430.63;4983256;28;20061;-67
2022/01/12 06:05:21;;;;;;;34.00;31.70;;;;;;;-8.40;85.52;102435.91;4983847;28;20031;-63
2022/01/12 06:07:51;;;;;;;31.85;30.08;;;;;;;-8.22;85.71;102440.09;4981220;28;20056;-68
2022/01/12 06:10:18;;;;;;;31.48;29.77;;;;;;;-7.85;84.05;102446.72;4984046;28;20033;-67
2022/01/12 06:12:44;;;;;;;29.08;27.38;;;;;;;-6.96;81.77;102441.63;4988991;28;20029;-66
2022/01/12 06:15:11;;;;;;;23.45;22.23;;;;;;;-7.01;79.65;102440.81;4988661;28;20046;-67
2022/01/12 06:17:37;;;;;;;21.58;20.27;;;;;;;-6.79;79.50;102450.91;4979509;28;20069;-65
2022/01/12 06:20:04;;;;;;;20.23;19.05;;;;;;;-6.37;78.41;102444.41;4987998;28;20053;-67
2022/01/12 06:22:30;;;;;;;16.63;15.73;;;;;;;-5.41;76.08;102450.69;4989011;28;20038;-67
2022/01/12 06:24:57;;;;;;;15.38;14.48;;;;;;;-5.18;73.35;102463.25;4978280;28;20054;-67
2022/01/12 06:27:27;;;;;;;13.15;12.45;;;;;;;-4.82;73.54;102453.94;4980193;28;20031;-63
2022/01/12 06:31:10;;;;;;;13.98;13.02;;;;;;;-4.18;69.88;102457.00;4986680;28;20054;-64
2022/01/12 06:32:55;;;;;;;12.25;11.55;;;;;;;-4.13;68.10;102459.47;4987121;28;20041;-64
2022/01/12 06:35:21;;;;;;;11.52;10.93;;;;;;;-3.50;66.86;102457.16;4980967;28;20038;-62
2022/01/12 06:37:47;;;;;;;13.13;12.32;;;;;;;-2.57;62.18;102464.22;4978210;28;20033;-66
2022/01/12 06:40:14;;;;;;;12.07;11.40;;;;;;;-1.02;57.64;102462.88;4985321;28;20026;-67
2022/01/12 06:42:39;;;;;;;12.13;11.45;;;;;;;-0.13;53.09;102452.69;4978945;28;20042;-61
2022/01/12 06:45:06;;;;;;;12.45;11.75;;;;;;;0.78;51.12;102469.03;4986313;28;20031;-65
2022/01/12 06:47:32;;;;;;;12.13;11.43;;;;;;;2.05;48.24;102473.84;4982973;28;20029;-63
2022/01/12 06:49:58;;;;;;;12.27;11.57;;;;;;;2.15;46.71;102470.75;4976808;28;20113;-63
2022/01/12 06:52:23;;;;;;;11.73;11.02;;;;;;;1.25;47.39;102466.16;4981074;28;20455;-66
2022/01/12 06:54:49;;;;;;;12.07;11.38;;;;;;;0.85;50.87;102459.19;4982087;28;20088;-67
2022/01/12 06:57:16;;;;;;;11.65;11.05;;;;;;;2.74;44.76;102456.50;4981296;28;20050;-63
2022/01/12 06:59:41;;;;;;;12.35;11.65;;;;;;;1.62;46.10;102461.00;4977795;28;20052;-65
2022/01/12 07:02:07;;;;;;;13.07;12.27;;;;;;;2.66;43.69;102463.06;4983775;28;20392;-65
2022/01/12 07:04:33;;;;;;;14.38;13.40;;;;;;;3.05;42.37;102461.03;4983015;28;20044;-67
2022/01/12 07:06:58;;;;;;;13.27;12.48;;;;;;;3.92;41.33;102476.56;4987249;28;20034;-65
2022/01/12 07:09:24;;;;;;;13.10;12.30;;;;;;;3.90;40.24;102470.56;4982737;28;20108;-62
2022/01/12 07:11:49;;;;;;;12.35;11.65;;;;;;;3.76;39.89;102468.69;4978070;28;20101;-67
2022/01/12 07:14:15;;;;;;;11.95;11.27;;;;;;;3.90;38.91;102472.34;4976976;28;20065;-63
2022/01/12 07:16:40;;;;;;;12.73;11.93;;;;;;;4.67;38.18;102467.09;4978691;28;20033;-63
2022/01/12 07:19:06;;;;;;;11.27;10.68;;;;;;;4.25;38.27;102465.13;4979406;28;20045;-63
2022/01/12 07:21:31;;;;;;;11.20;10.60;;;;;;;5.78;36.54;102470.00;4987535;28;20542;-65
2022/01/12 07:23:57;;;;;;;12.75;11.95;;;;;;;5.09;36.32;102465.50;4984634;28;20030;-65
2022/01/12 07:26:24;;;;;;;10.75;10.18;;;;;;;4.83;37.31;102461.78;4982857;28;20113;-67
2022/01/12 07:28:50;;;;;;;10.73;10.23;;;;;;;5.83;35.81;102470.59;4981624;28;20068;-67
2022/01/12 07:31:16;;;;;;;10.65;10.13;;;;;;;5.82;35.94;102482.91;4974319;28;20432;-67
2022/01/12 07:33:42;;;;;;;10.27;9.77;;;;;;;7.90;32.05;102478.69;4984394;28;20036;-64
2022/01/12 07:36:07;;;;;;;10.10;9.60;;;;;;;6.53;33.06;102475.78;4984126;28;20030;-66
2022/01/12 07:38:33;;;;;;;11.23;10.63;;;;;;;6.04;33.99;102474.53;4982375;28;20066;-63
2022/01/12 07:40:59;;;;;;;10.82;10.32;;;;;;;5.98;35.07;102476.72;4980983;28;20057;-65
2022/01/12 07:43:24;;;;;;;10.23;9.73;;;;;;;6.52;32.79;102477.56;4981159;28;20028;-62
2022/01/12 07:45:50;;;;;;;10.60;10.10;;;;;;;6.58;33.15;102474.53;4978148;28;20420;-65
2022/01/12 07:48:16;;;;;;;10.82;10.27;;;;;;;6.01;33.30;102473.88;4976605;28;20041;-65
2022/01/12 07:50:44;;;;;;;11.23;10.63;;;;;;;6.37;33.92;102484.69;4981657;28;20069;-65
2022/01/12 07:53:10;;;;;;;10.77;10.27;;;;;;;6.52;33.02;102488.13;4982083;28;20030;-62
2022/01/12 07:55:35;;;;;;;11.05;10.45;;;;;;;7.18;33.10;102487.19;4983230;28;20054;-65
2022/01/12 07:58:01;;;;;;;10.65;10.13;;;;;;;6.34;32.76;102487.53;4976219;28;20456;-66
2022/01/12 08:00:27;;;;;;;10.48;9.95;;;;;;;6.27;32.75;102491.50;4979765;28;20511;-68
2022/01/12 08:02:52;;;;;;;10.82;10.25;;;;;;;6.67;32.77;102485.41;4983819;28;20030;-69
2022/01/12 08:05:19;;;;;;;9.95;9.45;;;;;;;6.60;32.89;102493.72;4977736;28;20042;-65
2022/01/12 08:07:45;;;;;;;9.93;9.43;;;;;;;5.95;32.48;102497.97;4975479;28;20034;-64
2022/01/12 08:10:11;;;;;;;9.90;9.43;;;;;;;6.19;32.56;102491.16;4984074;28;20023;-63
2022/01/12 08:12:37;;;;;;;11.45;10.85;;;;;;;6.08;32.61;102502.34;4981053;28;20031;-63
2022/01/12 08:15:05;;;;;;;10.70;10.18;;;;;;;5.37;33.46;102498.91;4979979;28;20038;-66
2022/01/12 08:17:33;;;;;;;11.10;10.50;;;;;;;6.35;31.86;102496.28;4982060;28;20513;-65
2022/01/12 08:20:00;;;;;;;9.93;9.43;;;;;;;6.88;32.31;102503.31;4990454;28;20042;-68
2022/01/12 08:22:26;;;;;;;11.10;10.50;;;;;;;7.47;31.32;102501.03;4980388;28;20081;-67
2022/01/12 08:24:51;;;;;;;11.10;10.50;;;;;;;6.63;31.94;102513.78;4982303;28;20022;-67
2022/01/12 08:27:16;;;;;;;10.20;9.70;;;;;;;6.21;31.68;102498.97;4988129;28;20037;-65
2022/01/12 08:29:42;;;;;;;10.10;9.60;;;;;;;6.85;32.21;102498.25;4983303;28;20023;-64
2022/01/12 08:32:08;;;;;;;10.15;9.65;;;;;;;6.17;32.08;102506.22;4986146;28;20120;-68
2022/01/12 08:34:34;;;;;;;11.00;10.43;;;;;;;6.79;31.91;102500.44;4977648;28;20038;-67
2022/01/12 08:36:59;;;;;;;11.20;10.60;;;;;;;7.52;30.95;102505.16;4987815;28;20380;-67
2022/01/12 08:39:25;;;;;;;9.65;9.15;;;;;;;7.47;29.81;102498.41;4989055;28;20030;-66
2022/01/12 08:41:51;;;;;;;11.00;10.40;;;;;;;5.22;33.55;102501.50;4984228;28;20081;-69
2022/01/12 08:44:16;;;;;;;9.75;9.25;;;;;;;7.06;31.78;102497.75;4980130;28;20088;-66
2022/01/12 08:46:42;;;;;;;10.82;10.23;;;;;;;6.96;31.18;102502.78;4983302;28;20465;-66
2022/01/12 08:49:08;;;;;;;10.18;9.68;;;;;;;6.21;31.95;102491.91;4984206;28;20038;-66
2022/01/12 08:51:35;;;;;;;10.45;9.95;;;;;;;6.97;31.89;102503.63;4984998;28;20081;-68
2022/01/12 08:54:00;;;;;;;10.07;9.57;;;;;;;7.21;31.19;102502.00;4978229;28;20525;-65
2022/01/12 08:56:26;;;;;;;10.07;9.57;;;;;;;6.51;32.57;102501.41;4984357;28;20046;-65
2022/01/12 08:58:52;;;;;;;11.23;10.63;;;;;;;6.19;32.34;102491.16;4986562;28;20467;-66
2022/01/12 09:01:18;;;;;;;10.77;10.18;;;;;;;6.18;32.02;102488.63;4987510;28;20437;-66
2022/01/12 09:03:44;;;;;;;9.48;9.07;;;;;;;7.52;31.12;102486.69;4986098;28;20026;-66
2022/01/12 09:06:09;;;;;;;10.88;10.27;;;;;;;6.34;31.88;102490.16;4976521;28;20085;-67
2022/01/12 09:08:40;;;;;;;10.02;9.52;;;;;;;5.43;33.25;102477.44;4976851;28;20381;-65
2022/01/12 09:11:07;;;;;;;10.93;10.38;;;;;;;5.85;32.88;102479.22;4981712;28;20165;-67
2022/01/12 09:13:33;;;;;;;10.45;9.95;;;;;;;5.30;33.86;102474.75;4981752;28;20037;-63
2022/01/12 09:16:00;;;;;;;9.93;9.48;;;;;;;6.03;32.72;102472.00;4979245;28;20038;-69
2022/01/12 09:18:25;;;;;;;10.10;9.60;;;;;;;6.18;32.14;102462.28;4987144;28;20023;-70
2022/01/12 09:20:53;;;;;;;10.80;10.20;;;;;;;5.73;32.69;102456.31;4981877;28;23713;-68
2022/01/12 09:23:19;;;;;;;10.27;9.77;;;;;;;5.90;32.55;102463.16;4984445;28;20377;-63
2022/01/12 09:25:45;;;;;;;10.13;9.63;;;;;;;5.27;34.80;102464.38;4987364;28;20034;-67
2022/01/12 09:28:10;;;;;;;10.13;9.63;;;;;;;5.54;32.86;102453.97;4984825;28;20037;-64
2022/01/12 09:30:37;;;;;;;11.02;10.43;;;;;;;5.16;33.58;102443.16;4976594;28;20045;-67
2022/01/12 09:33:03;;;;;;;10.38;9.85;;;;;;;3.54;36.21;102458.50;4985979;28;20487;-68
2022/01/12 09:35:29;;;;;;;10.68;10.07;;;;;;;2.75;38.01;102444.25;4983642;28;20026;-67
2022/01/12 09:37:55;;;;;;;10.63;10.02;;;;;;;0.31;43.67;102444.88;4985038;28;20042;-69
2022/01/12 09:40:21;;;;;;;11.30;10.70;;;;;;;-0.12;45.67;102452.63;4980470;28;20503;-65
2022/01/12 09:42:48;;;;;;;12.30;11.70;;;;;;;-0.74;47.39;102445.34;4980182;28;20041;-69
2022/01/12 09:45:17;;;;;;;15.23;14.23;;;;;;;-0.74;47.51;102437.53;4978060;28;20480;-64
2022/01/12 09:47:49;;;;;;;14.02;13.23;;;;;;;-1.13;48.92;102434.59;4989174;28;20468;-67
2022/01/12 09:50:18;;;;;;;14.15;13.40;;;;;;;-1.65;50.32;102430.25;4985020;28;20503;-68
2022/01/12 09:52:43;;;;;;;14.70;13.90;;;;;;;-1.94;51.61;102434.63;4980555;28;20080;-66
2022/01/12 09:55:09;;;;;;;14.43;13.65;;;;;;;-2.45;52.17;102437.91;4979474;28;20117;-65
2022/01/12 09:57:34;;;;;;;16.23;15.25;;;;;;;-2.15;52.65;102430.94;4984989;28;20046;-64
2022/01/12 10:00:00;;;;;;;14.30;13.57;;;;;;;-2.08;53.10;102424.66;4978137;28;20083;-65
2022/01/12 10:02:25;;;;;;;16.17;15.27;;;;;;;-2.55;53.31;102413.09;4977273;28;20365;-66
2022/01/12 10:05:03;;;;;;;16.50;15.43;;;;;;;-2.22;52.75;102421.63;4976296;28;20480;-66
2022/01/12 10:07:28;;;;;;;14.75;14.00;;;;;;;-2.76;53.22;102421.47;4986399;28;20026;-66
2022/01/12 10:09:59;;;;;;;15.48;14.57;;;;;;;-2.35;52.94;102420.28;4988346;28;20077;-66
2022/01/12 10:12:27;;;;;;;15.38;14.48;;;;;;;-2.57;52.57;102413.13;4985145;28;20033;-69
2022/01/12 10:15:01;;;;;;;15.20;14.30;;;;;;;-2.68;52.44;102411.72;4983943;28;20444;-67
2022/01/12 10:17:42;;;;;;;13.77;13.07;;;;;;;-2.69;51.91;102408.28;4986576;28;20053;-65
2022/01/12 10:20:18;;;;;;;15.45;14.55;;;;;;;-2.36;52.27;102413.38;4979020;28;20031;-65
2022/01/12 10:23:01;;;;;;;14.50;13.70;;;;;;;-2.38;52.71;102408.22;4990126;28;20058;-69
2022/01/12 10:25:29;;;;;;;14.00;13.25;;;;;;;-2.51;52.25;102410.34;4983353;28;20043;-65
2022/01/12 10:27:58;;;;;;;14.38;13.57;;;;;;;-2.78;53.03;102401.59;4979156;28;20042;-66
2022/01/12 10:30:32;;;;;;;14.82;13.93;;;;;;;-3.14;53.71;102400.88;4977317;28;20039;-73
2022/01/12 10:33:06;;;;;;;14.77;13.88;;;;;;;-2.63;52.57;102407.25;4983158;28;20114;-63
2022/01/12 10:35:34;;;;;;;15.82;14.93;;;;;;;-2.75;53.05;102398.06;4977503;28;20468;-64
2022/01/12 10:38:11;;;;;;;15.15;14.25;;;;;;;-2.87;52.98;102388.00;4981582;28;20562;-65
2022/01/12 10:40:50;;;;;;;14.85;14.05;;;;;;;-2.74;53.29;102396.31;4978958;28;20421;-66
2022/01/12 10:43:27;;;;;;;14.65;13.77;;;;;;;-2.55;53.53;102393.16;4985513;28;20034;-70
2022/01/12 10:45:53;;;;;;;14.95;14.05;;;;;;;-2.43;53.25;102385.88;4981203;28;20033;-65
2022/01/12 10:48:20;;;;;;;14.18;13.38;;;;;;;-2.76;53.41;102390.31;4983008;28;20077;-67
2022/01/12 10:50:56;;;;;;;14.73;13.93;;;;;;;-2.80;53.38;102381.75;4982360;28;20058;-65
2022/01/12 10:53:34;;;;;;;13.43;12.73;;;;;;;-2.87;53.35;102372.41;4981512;28;20392;-69
2022/01/12 10:56:06;;;;;;;14.27;13.48;;;;;;;-2.60;52.78;102376.84;4984338;28;20953;-66
2022/01/12 10:58:33;;;;;;;13.48;12.77;;;;;;;-2.49;52.70;102378.28;4981420;28;20411;-68
2022/01/12 11:00:58;;;;;;;17.13;16.13;;;;;;;-2.76;52.85;102364.34;4979283;28;20038;-64
2022/01/12 11:03:24;;;;;;;15.68;14.68;;;;;;;-3.07;53.15;102370.41;4980607;28;20026;-66
2022/01/12 11:05:53;;;;;;;14.75;13.95;;;;;;;-2.64;52.91;102364.00;4979699;28;20062;-65
2022/01/12 11:08:19;;;;;;;14.73;13.82;;;;;;;-2.66;53.29;102363.16;4984441;28;20062;-68
2022/01/12 11:10:45;;;;;;;13.95;13.15;;;;;;;-2.83;53.82;102354.13;4982875;28;20504;-62
2022/01/12 11:13:11;;;;;;;15.70;14.80;;;;;;;-2.80;53.41;102360.97;4978430;28;20034;-67
2022/01/12 11:15:37;;;;;;;14.40;13.57;;;;;;;-2.78;53.09;102360.03;4976594;28;20361;-65
2022/01/12 11:18:03;;;;;;;13.45;12.75;;;;;;;-3.28;53.75;102343.28;4983684;28;20032;-64
2022/01/12 11:20:30;;;;;;;15.02;14.13;;;;;;;-3.07;53.50;102358.28;4980222;28;20026;-68
2022/01/12 11:23:08;;;;;;;15.15;14.25;;;;;;;-3.09;53.21;102339.25;4985690;28;20034;-67
2022/01/12 11:25:41;;;;;;;14.30;13.50;;;;;;;-3.33;53.56;102342.53;4975763;28;20088;-68
2022/01/12 11:28:06;;;;;;;16.10;15.07;;;;;;;-3.21;53.65;102336.19;4977405;28;20034;-68
2022/01/12 11:30:33;;;;;;;14.90;14.00;;;;;;;-3.06;53.08;102340.94;4978643;28;20033;-63
2022/01/12 11:33:00;;;;;;;14.60;13.80;;;;;;;-3.31;53.19;102338.16;4981393;28;20085;-64
2022/01/12 11:35:36;;;;;;;14.63;13.82;;;;;;;-3.07;52.37;102357.41;4975841;28;20042;-65
2022/01/12 11:38:03;;;;;;;14.40;13.68;;;;;;;-3.07;52.54;102347.03;4974927;28;20023;-68
2022/01/12 11:40:37;;;;;;;14.25;13.45;;;;;;;-3.12;52.57;102341.13;4982884;28;20026;-67
2022/01/12 11:43:15;;;;;;;15.98;14.95;;;;;;;-2.94;51.54;102345.78;4987666;28;20026;-67
2022/01/12 11:45:40;;;;;;;15.15;14.25;;;;;;;-3.39;52.34;102343.56;4979420;28;20065;-69
2022/01/12 11:48:06;;;;;;;14.57;13.77;;;;;;;-3.06;52.07;102344.38;4976469;28;20069;-67
2022/01/12 11:50:31;;;;;;;15.27;14.35;;;;;;;-2.97;52.27;102355.41;4984292;28;20022;-67
2022/01/12 11:52:57;;;;;;;14.65;13.80;;;;;;;-3.18;52.36;102331.75;4983457;28;20042;-66
2022/01/12 11:55:30;;;;;;;15.30;14.30;;;;;;;-2.83;52.87;102337.69;4976949;28;20026;-65
2022/01/12 11:58:01;;;;;;;14.70;13.90;;;;;;;-3.06;51.64;102336.59;4974808;28;20327;-65
2022/01/12 12:00:30;;;;;;;13.75;13.05;;;;;;;-2.83;52.44;102337.69;4973581;28;20038;-65
2022/01/12 12:02:57;;;;;;;15.35;14.45;;;;;;;-2.94;52.49;102327.59;4976366;28;20408;-65
2022/01/12 12:05:30;;;;;;;14.48;13.68;;;;;;;-2.60;52.51;102330.06;4982484;28;20042;-67
2022/01/12 12:08:02;;;;;;;13.37;12.67;;;;;;;-2.65;51.96;102336.28;4981146;28;20485;-64
2022/01/12 12:10:30;;;;;;;16.42;15.43;;;;;;;-2.78;51.23;102330.63;4973245;28;20276;-66
2022/01/12 12:12:57;;;;;;;13.75;12.98;;;;;;;-2.84;51.44;102326.44;4978859;28;20030;-65
2022/01/12 12:15:23;;;;;;;14.77;13.95;;;;;;;-2.53;51.67;102326.38;4975506;28;20100;-65
2022/01/12 12:17:50;;;;;;;14.15;13.35;;;;;;;-2.75;52.70;102321.88;4980961;28;20033;-63
2022/01/12 12:20:17;;;;;;;14.32;13.52;;;;;;;-2.57;52.61;102330.00;4979800;28;20062;-66
2022/01/12 12:22:45;;;;;;;14.10;13.30;;;;;;;-2.65;52.25;102324.16;4976114;28;20034;-69